sensor_id;sensor_type;location;lat;lon;timestamp;pressure;altitude;pressure_sealevel;temperature;humidity
34979;BME280;21185;50.978;13.720;2022-09-27T00:02:26;96557.34;;;14.08;60.98
34979;BME280;21185;50.978;13.720;2022-09-27T00:07:28;96551.56;;;14.06;61.03
34979;BME280;21185;50.978;13.720;2022-09-27T00:12:30;96538.97;;;14.03;60.91
34979;BME280;21185;50.978;13.720;2022-09-27T00:17:32;96533.75;;;14.03;60.94
34979;BME280;21185;50.978;13.720;2022-09-27T00:22:35;96534.56;;;14.04;60.84
34979;BME280;21185;50.978;13.720;2022-09-27T00:27:37;96529.56;;;14.02;60.96
34979;BME280;21185;50.978;13.720;2022-09-27T00:32:39;96515.16;;;14.00;61.04
34979;BME280;21185;50.978;13.720;2022-09-27T00:37:41;96507.56;;;13.98;61.07
34979;BME280;21185;50.978;13.720;2022-09-27T00:42:43;96496.34;;;13.98;61.17
34979;BME280;21185;50.978;13.720;2022-09-27T00:47:58;96487.97;;;13.96;61.17
34979;BME280;21185;50.978;13.720;2022-09-27T00:53:21;96471.53;;;13.95;61.33
34979;BME280;21185;50.978;13.720;2022-09-27T00:58:35;96467.09;;;13.96;61.48
34979;BME280;21185;50.978;13.720;2022-09-27T01:03:41;96456.09;;;13.93;61.51
34979;BME280;21185;50.978;13.720;2022-09-27T01:08:46;96450.09;;;13.93;61.50
34979;BME280;21185;50.978;13.720;2022-09-27T01:40:39;96400.56;;;13.93;61.69
34979;BME280;21185;50.978;13.720;2022-09-27T01:46:09;96394.53;;;13.92;61.60
34979;BME280;21185;50.978;13.720;2022-09-27T01:51:42;96392.16;;;13.91;61.66
34979;BME280;21185;50.978;13.720;2022-09-27T01:56:49;96390.56;;;13.90;61.88
34979;BME280;21185;50.978;13.720;2022-09-27T02:01:59;96390.00;;;13.88;61.77
34979;BME280;21185;50.978;13.720;2022-09-27T02:07:22;96379.03;;;13.86;61.84
34979;BME280;21185;50.978;13.720;2022-09-27T02:12:31;96375.84;;;13.84;62.02
34979;BME280;21185;50.978;13.720;2022-09-27T02:17:44;96361.47;;;13.81;62.00
34979;BME280;21185;50.978;13.720;2022-09-27T02:28:50;96351.94;;;13.75;62.35
34979;BME280;21185;50.978;13.720;2022-09-27T02:34:10;96349.22;;;13.70;62.42
34979;BME280;21185;50.978;13.720;2022-09-27T02:39:16;96346.84;;;13.69;63.00
34979;BME280;21185;50.978;13.720;2022-09-27T02:44:18;96339.25;;;13.67;62.74
34979;BME280;21185;50.978;13.720;2022-09-27T02:55:19;96321.38;;;13.59;63.02
34979;BME280;21185;50.978;13.720;2022-09-27T03:00:57;96322.84;;;13.55;63.30
34979;BME280;21185;50.978;13.720;2022-09-27T03:06:35;96310.59;;;13.55;63.25
34979;BME280;21185;50.978;13.720;2022-09-27T03:11:38;96312.75;;;13.58;63.29
34979;BME280;21185;50.978;13.720;2022-09-27T03:16:40;96301.88;;;13.61;63.47
34979;BME280;21185;50.978;13.720;2022-09-27T03:22:02;96310.25;;;13.64;63.61
34979;BME280;21185;50.978;13.720;2022-09-27T03:27:05;96301.66;;;13.63;63.72
34979;BME280;21185;50.978;13.720;2022-09-27T03:32:06;96298.25;;;13.63;64.14
34979;BME280;21185;50.978;13.720;2022-09-27T03:37:36;96294.06;;;13.61;64.08
34979;BME280;21185;50.978;13.720;2022-09-27T03:42:38;96293.25;;;13.61;64.20
34979;BME280;21185;50.978;13.720;2022-09-27T03:47:40;96283.06;;;13.59;64.41
34979;BME280;21185;50.978;13.720;2022-09-27T03:52:43;96277.28;;;13.57;64.55
34979;BME280;21185;50.978;13.720;2022-09-27T03:57:46;96272.31;;;13.56;64.85
34979;BME280;21185;50.978;13.720;2022-09-27T04:02:50;96262.91;;;13.55;65.09
34979;BME280;21185;50.978;13.720;2022-09-27T04:07:58;96262.13;;;13.54;65.29
34979;BME280;21185;50.978;13.720;2022-09-27T04:13:03;96243.09;;;13.54;65.14
34979;BME280;21185;50.978;13.720;2022-09-27T04:18:10;96241.28;;;13.54;65.23
34979;BME280;21185;50.978;13.720;2022-09-27T04:23:30;96237.88;;;13.54;65.33
34979;BME280;21185;50.978;13.720;2022-09-27T04:28:32;96238.09;;;13.52;65.39
34979;BME280;21185;50.978;13.720;2022-09-27T04:33:34;96239.69;;;13.53;65.59
34979;BME280;21185;50.978;13.720;2022-09-27T04:38:40;96226.66;;;13.53;65.63
34979;BME280;21185;50.978;13.720;2022-09-27T04:43:42;96237.88;;;13.54;65.88
34979;BME280;21185;50.978;13.720;2022-09-27T04:48:44;96234.47;;;13.53;65.86
34979;BME280;21185;50.978;13.720;2022-09-27T04:53:46;96232.66;;;13.54;65.83
34979;BME280;21185;50.978;13.720;2022-09-27T04:58:48;96230.84;;;13.54;65.93
34979;BME280;21185;50.978;13.720;2022-09-27T05:03:51;96234.47;;;13.53;66.02
34979;BME280;21185;50.978;13.720;2022-09-27T05:08:53;96222.72;;;13.51;65.84
34979;BME280;21185;50.978;13.720;2022-09-27T05:14:00;96230.53;;;13.51;66.10
34979;BME280;21185;50.978;13.720;2022-09-27T05:19:03;96229.97;;;13.49;66.18
34979;BME280;21185;50.978;13.720;2022-09-27T05:24:24;96219.78;;;13.47;66.16
34979;BME280;21185;50.978;13.720;2022-09-27T05:29:27;96224.19;;;13.47;66.20
34979;BME280;21185;50.978;13.720;2022-09-27T05:34:43;96224.97;;;13.47;66.15
34979;BME280;21185;50.978;13.720;2022-09-27T05:39:46;96218.19;;;13.46;66.24
34979;BME280;21185;50.978;13.720;2022-09-27T05:44:47;96230.19;;;13.47;66.20
34979;BME280;21185;50.978;13.720;2022-09-27T05:49:50;96228.59;;;13.46;66.37
34979;BME280;21185;50.978;13.720;2022-09-27T05:54:52;96224.41;;;13.45;66.46
34979;BME280;21185;50.978;13.720;2022-09-27T05:59:54;96226.00;;;13.46;66.68
34979;BME280;21185;50.978;13.720;2022-09-27T06:05:14;96221.81;;;13.45;66.75
34979;BME280;21185;50.978;13.720;2022-09-27T06:10:35;96227.03;;;13.45;66.81
34979;BME280;21185;50.978;13.720;2022-09-27T06:15:42;96225.78;;;13.48;66.86
34979;BME280;21185;50.978;13.720;2022-09-27T06:20:44;96233.13;;;13.51;66.88
34979;BME280;21185;50.978;13.720;2022-09-27T06:25:47;96223.50;;;13.51;67.02
34979;BME280;21185;50.978;13.720;2022-09-27T06:31:12;96225.09;;;13.52;67.06
34979;BME280;21185;50.978;13.720;2022-09-27T06:36:48;96230.41;;;13.57;67.25
34979;BME280;21185;50.978;13.720;2022-09-27T06:41:54;96220.53;;;13.59;67.31
34979;BME280;21185;50.978;13.720;2022-09-27T06:47:18;96226.88;;;13.64;67.29
34979;BME280;21185;50.978;13.720;2022-09-27T06:52:36;96224.81;;;13.66;67.51
34979;BME280;21185;50.978;13.720;2022-09-27T06:57:38;96224.91;;;13.71;67.63
34979;BME280;21185;50.978;13.720;2022-09-27T07:02:59;96244.84;;;13.77;67.64
34979;BME280;21185;50.978;13.720;2022-09-27T07:08:38;96235.53;;;13.81;67.71
34979;BME280;21185;50.978;13.720;2022-09-27T07:13:40;96229.31;;;13.82;67.80
34979;BME280;21185;50.978;13.720;2022-09-27T07:18:44;96236.66;;;13.85;67.97
34979;BME280;21185;50.978;13.720;2022-09-27T07:23:49;96232.56;;;13.89;68.04
34979;BME280;21185;50.978;13.720;2022-09-27T07:28:51;96237.78;;;13.89;67.97
34979;BME280;21185;50.978;13.720;2022-09-27T07:33:55;96250.34;;;13.92;68.06
34979;BME280;21185;50.978;13.720;2022-09-27T07:38:58;96247.03;;;13.97;68.12
34979;BME280;21185;50.978;13.720;2022-09-27T07:44:01;96245.78;;;13.99;67.99
34979;BME280;21185;50.978;13.720;2022-09-27T07:49:06;96244.78;;;14.00;68.05
34979;BME280;21185;50.978;13.720;2022-09-27T07:54:23;96239.56;;;14.00;67.98
34979;BME280;21185;50.978;13.720;2022-09-27T07:59:47;96245.56;;;14.01;67.93
34979;BME280;21185;50.978;13.720;2022-09-27T08:04:52;96240.13;;;14.02;68.00
34979;BME280;21185;50.978;13.720;2022-09-27T08:09:55;96251.00;;;13.99;67.86
34979;BME280;21185;50.978;13.720;2022-09-27T08:14:57;96241.03;;;13.96;67.78
34979;BME280;21185;50.978;13.720;2022-09-27T08:20:02;96246.03;;;13.98;67.68
34979;BME280;21185;50.978;13.720;2022-09-27T08:25:25;96247.94;;;14.02;67.63
34979;BME280;21185;50.978;13.720;2022-09-27T08:30:58;96248.25;;;14.06;67.63
34979;BME280;21185;50.978;13.720;2022-09-27T08:36:00;96250.97;;;14.11;67.52
34979;BME280;21185;50.978;13.720;2022-09-27T08:46:43;96262.56;;;14.32;67.21
34979;BME280;21185;50.978;13.720;2022-09-27T08:51:50;96261.06;;;14.36;67.11
34979;BME280;21185;50.978;13.720;2022-09-27T08:57:01;96261.72;;;14.43;67.12
34979;BME280;21185;50.978;13.720;2022-09-27T09:02:12;96262.75;;;14.42;66.92
34979;BME280;21185;50.978;13.720;2022-09-27T09:18:14;96280.81;;;14.32;66.29
34979;BME280;21185;50.978;13.720;2022-09-27T09:34:25;96292.97;;;13.98;66.72
34979;BME280;21185;50.978;13.720;2022-09-27T09:39:40;96289.78;;;13.96;66.95
34979;BME280;21185;50.978;13.720;2022-09-27T09:44:57;96283.78;;;13.95;66.95
34979;BME280;21185;50.978;13.720;2022-09-27T09:50:16;96281.88;;;13.90;67.20
34979;BME280;21185;50.978;13.720;2022-09-27T09:55:21;96278.91;;;13.99;66.94
34979;BME280;21185;50.978;13.720;2022-09-27T10:00:24;96266.13;;;14.14;66.92
34979;BME280;21185;50.978;13.720;2022-09-27T10:05:27;96266.75;;;14.33;67.08
34979;BME280;21185;50.978;13.720;2022-09-27T10:10:37;96273.06;;;14.37;67.15
34979;BME280;21185;50.978;13.720;2022-09-27T10:16:09;96272.59;;;14.40;67.40
34979;BME280;21185;50.978;13.720;2022-09-27T10:21:34;96283.63;;;14.42;67.48
34979;BME280;21185;50.978;13.720;2022-09-27T10:26:41;96293.47;;;14.40;67.35
34979;BME280;21185;50.978;13.720;2022-09-27T10:31:46;96276.06;;;14.29;66.80
34979;BME280;21185;50.978;13.720;2022-09-27T10:42:37;96291.00;;;14.62;65.87
34979;BME280;21185;50.978;13.720;2022-09-27T10:47:43;96305.16;;;14.49;65.81
34979;BME280;21185;50.978;13.720;2022-09-27T10:53:04;96318.72;;;14.22;65.62
34979;BME280;21185;50.978;13.720;2022-09-27T10:58:18;96333.09;;;13.97;65.71
34979;BME280;21185;50.978;13.720;2022-09-27T11:03:22;96337.91;;;13.76;65.70
34979;BME280;21185;50.978;13.720;2022-09-27T11:08:32;96337.44;;;13.68;65.69
34979;BME280;21185;50.978;13.720;2022-09-27T11:14:03;96343.22;;;13.70;65.69
34979;BME280;21185;50.978;13.720;2022-09-27T11:19:33;96354.09;;;13.67;65.34
34979;BME280;21185;50.978;13.720;2022-09-27T11:25:02;96351.06;;;13.58;65.48
34979;BME280;21185;50.978;13.720;2022-09-27T11:30:11;96349.81;;;13.60;65.79
34979;BME280;21185;50.978;13.720;2022-09-27T11:46:31;96355.38;;;13.52;66.56
34979;BME280;21185;50.978;13.720;2022-09-27T11:57:20;96341.16;;;13.95;66.76
34979;BME280;21185;50.978;13.720;2022-09-27T12:02:45;96349.38;;;14.15;66.51
34979;BME280;21185;50.978;13.720;2022-09-27T12:08:05;96356.38;;;14.26;66.57
34979;BME280;21185;50.978;13.720;2022-09-27T12:13:12;96353.91;;;14.20;66.55
34979;BME280;21185;50.978;13.720;2022-09-27T12:18:31;96366.41;;;14.06;66.69
34979;BME280;21185;50.978;13.720;2022-09-27T12:23:44;96366.44;;;13.94;66.70
34979;BME280;21185;50.978;13.720;2022-09-27T12:29:25;96385.25;;;13.85;66.81
34979;BME280;21185;50.978;13.720;2022-09-27T12:45:04;96370.75;;;13.89;66.94
34979;BME280;21185;50.978;13.720;2022-09-27T13:00:22;96378.44;;;13.96;67.13
34979;BME280;21185;50.978;13.720;2022-09-27T13:11:28;96372.19;;;14.08;66.84
34979;BME280;21185;50.978;13.720;2022-09-27T13:16:44;96377.63;;;14.07;66.42
34979;BME280;21185;50.978;13.720;2022-09-27T13:27:34;96374.44;;;14.16;66.21
34979;BME280;21185;50.978;13.720;2022-09-27T13:32:38;96387.56;;;14.21;66.12
34979;BME280;21185;50.978;13.720;2022-09-27T13:53:39;96411.66;;;14.00;65.09
34979;BME280;21185;50.978;13.720;2022-09-27T13:58:49;96406.78;;;13.92;64.91
34979;BME280;21185;50.978;13.720;2022-09-27T14:09:28;96424.13;;;13.98;64.68
34979;BME280;21185;50.978;13.720;2022-09-27T14:14:47;96420.94;;;13.96;64.60
34979;BME280;21185;50.978;13.720;2022-09-27T14:19:50;96425.72;;;13.99;64.49
34979;BME280;21185;50.978;13.720;2022-09-27T14:24:56;96431.25;;;14.03;64.45
34979;BME280;21185;50.978;13.720;2022-09-27T14:30:15;96440.34;;;14.00;64.30
34979;BME280;21185;50.978;13.720;2022-09-27T14:35:29;96457.81;;;13.88;64.56
34979;BME280;21185;50.978;13.720;2022-09-27T14:46:02;96468.44;;;13.63;65.18
34979;BME280;21185;50.978;13.720;2022-09-27T14:56:27;96464.47;;;13.49;65.34
34979;BME280;21185;50.978;13.720;2022-09-27T15:01:32;96480.75;;;13.44;65.48
34979;BME280;21185;50.978;13.720;2022-09-27T15:06:35;96473.84;;;13.38;65.39
34979;BME280;21185;50.978;13.720;2022-09-27T15:11:39;96486.84;;;13.38;65.61
34979;BME280;21185;50.978;13.720;2022-09-27T15:16:47;96476.88;;;13.35;65.51
34979;BME280;21185;50.978;13.720;2022-09-27T15:21:50;96473.72;;;13.33;65.50
34979;BME280;21185;50.978;13.720;2022-09-27T15:26:52;96476.75;;;13.30;65.56
34979;BME280;21185;50.978;13.720;2022-09-27T15:32:04;96471.44;;;13.25;65.43
34979;BME280;21185;50.978;13.720;2022-09-27T15:37:24;96487.16;;;13.18;65.48
34979;BME280;21185;50.978;13.720;2022-09-27T15:42:26;96485.41;;;13.12;65.60
34979;BME280;21185;50.978;13.720;2022-09-27T15:57:47;96494.66;;;13.08;65.21
34979;BME280;21185;50.978;13.720;2022-09-27T16:02:51;96500.09;;;13.07;65.01
34979;BME280;21185;50.978;13.720;2022-09-27T16:07:53;96511.31;;;13.07;65.17
34979;BME280;21185;50.978;13.720;2022-09-27T16:12:55;96523.97;;;13.04;65.10
34979;BME280;21185;50.978;13.720;2022-09-27T16:17:57;96543.88;;;12.98;64.81
34979;BME280;21185;50.978;13.720;2022-09-27T16:22:59;96550.16;;;12.90;64.67
34979;BME280;21185;50.978;13.720;2022-09-27T16:28:03;96553.72;;;12.78;64.85
34979;BME280;21185;50.978;13.720;2022-09-27T16:33:05;96549.44;;;12.65;65.00
34979;BME280;21185;50.978;13.720;2022-09-27T16:38:07;96548.38;;;12.54;65.25
34979;BME280;21185;50.978;13.720;2022-09-27T16:43:09;96546.84;;;12.47;65.42
34979;BME280;21185;50.978;13.720;2022-09-27T16:48:12;96544.09;;;12.42;65.58
34979;BME280;21185;50.978;13.720;2022-09-27T16:53:14;96544.94;;;12.36;65.87
34979;BME280;21185;50.978;13.720;2022-09-27T16:58:16;96541.78;;;12.33;65.93
34979;BME280;21185;50.978;13.720;2022-09-27T17:03:18;96543.22;;;12.29;65.99
34979;BME280;21185;50.978;13.720;2022-09-27T17:08:24;96544.88;;;12.24;66.07
34979;BME280;21185;50.978;13.720;2022-09-27T17:13:26;96547.53;;;12.17;66.03
34979;BME280;21185;50.978;13.720;2022-09-27T17:18:28;96548.16;;;12.13;66.19
34979;BME280;21185;50.978;13.720;2022-09-27T17:23:30;96557.41;;;12.09;66.40
34979;BME280;21185;50.978;13.720;2022-09-27T17:28:34;96557.63;;;12.07;66.44
34979;BME280;21185;50.978;13.720;2022-09-27T17:33:43;96564.84;;;12.05;66.36
34979;BME280;21185;50.978;13.720;2022-09-27T17:38:47;96569.88;;;12.00;66.43
34979;BME280;21185;50.978;13.720;2022-09-27T17:43:54;96568.69;;;11.96;66.61
34979;BME280;21185;50.978;13.720;2022-09-27T17:48:57;96574.31;;;11.93;66.59
34979;BME280;21185;50.978;13.720;2022-09-27T17:54:20;96570.56;;;11.89;66.53
34979;BME280;21185;50.978;13.720;2022-09-27T17:59:23;96576.19;;;11.86;66.65
34979;BME280;21185;50.978;13.720;2022-09-27T18:04:26;96578.19;;;11.84;66.65
34979;BME280;21185;50.978;13.720;2022-09-27T18:09:29;96580.78;;;11.84;66.57
34979;BME280;21185;50.978;13.720;2022-09-27T18:14:30;96569.59;;;11.83;66.62
34979;BME280;21185;50.978;13.720;2022-09-27T18:19:32;96575.59;;;11.84;66.62
34979;BME280;21185;50.978;13.720;2022-09-27T18:24:34;96579.81;;;11.78;66.75
34979;BME280;21185;50.978;13.720;2022-09-27T18:29:36;96578.63;;;11.74;66.94
34979;BME280;21185;50.978;13.720;2022-09-27T18:34:38;96588.06;;;11.68;67.06
34979;BME280;21185;50.978;13.720;2022-09-27T18:39:40;96586.88;;;11.64;67.05
34979;BME280;21185;50.978;13.720;2022-09-27T18:44:42;96582.31;;;11.60;67.08
34979;BME280;21185;50.978;13.720;2022-09-27T18:49:44;96581.16;;;11.56;67.03
34979;BME280;21185;50.978;13.720;2022-09-27T18:54:46;96576.38;;;11.53;66.93
34979;BME280;21185;50.978;13.720;2022-09-27T18:59:48;96576.78;;;11.50;66.95
34979;BME280;21185;50.978;13.720;2022-09-27T19:04:49;96564.00;;;11.48;66.80
34979;BME280;21185;50.978;13.720;2022-09-27T19:09:51;96561.41;;;11.48;66.80
34979;BME280;21185;50.978;13.720;2022-09-27T19:14:54;96566.19;;;11.51;66.87
34979;BME280;21185;50.978;13.720;2022-09-27T19:19:55;96566.78;;;11.53;66.90
34979;BME280;21185;50.978;13.720;2022-09-27T19:24:57;96577.97;;;11.54;66.89
34979;BME280;21185;50.978;13.720;2022-09-27T19:29:59;96584.78;;;11.48;66.69
34979;BME280;21185;50.978;13.720;2022-09-27T19:35:01;96577.63;;;11.44;66.82
34979;BME280;21185;50.978;13.720;2022-09-27T19:40:05;96579.84;;;11.40;66.90
34979;BME280;21185;50.978;13.720;2022-09-27T19:45:07;96579.66;;;11.35;66.78
34979;BME280;21185;50.978;13.720;2022-09-27T19:50:12;96577.69;;;11.30;66.67
34979;BME280;21185;50.978;13.720;2022-09-27T19:55:14;96572.31;;;11.25;66.71
34979;BME280;21185;50.978;13.720;2022-09-27T20:00:16;96573.94;;;11.20;66.67
34979;BME280;21185;50.978;13.720;2022-09-27T20:05:18;96576.97;;;11.17;66.61
34979;BME280;21185;50.978;13.720;2022-09-27T20:10:20;96572.19;;;11.14;66.51
34979;BME280;21185;50.978;13.720;2022-09-27T20:15:22;96579.38;;;11.12;66.64
34979;BME280;21185;50.978;13.720;2022-09-27T20:20:24;96583.19;;;11.09;66.44
34979;BME280;21185;50.978;13.720;2022-09-27T20:25:25;96578.19;;;11.08;66.50
34979;BME280;21185;50.978;13.720;2022-09-27T20:30:29;96573.22;;;11.06;66.51
34979;BME280;21185;50.978;13.720;2022-09-27T20:35:30;96571.63;;;11.05;66.60
34979;BME280;21185;50.978;13.720;2022-09-27T20:40:32;96575.00;;;11.06;66.59
34979;BME280;21185;50.978;13.720;2022-09-27T20:45:34;96575.81;;;11.06;66.50
34979;BME280;21185;50.978;13.720;2022-09-27T20:50:36;96567.00;;;11.07;66.68
34979;BME280;21185;50.978;13.720;2022-09-27T20:55:38;96564.63;;;11.06;66.54
34979;BME280;21185;50.978;13.720;2022-09-27T21:00:40;96569.22;;;11.03;66.74
34979;BME280;21185;50.978;13.720;2022-09-27T21:05:42;96570.22;;;11.02;66.77
34979;BME280;21185;50.978;13.720;2022-09-27T21:10:43;96574.84;;;11.00;66.83
34979;BME280;21185;50.978;13.720;2022-09-27T21:15:52;96583.81;;;10.98;66.63
34979;BME280;21185;50.978;13.720;2022-09-27T21:21:03;96581.44;;;10.96;66.74
34979;BME280;21185;50.978;13.720;2022-09-27T21:26:10;96580.84;;;10.94;66.70
34979;BME280;21185;50.978;13.720;2022-09-27T21:31:15;96576.66;;;10.93;66.72
34979;BME280;21185;50.978;13.720;2022-09-27T21:36:26;96573.25;;;10.93;66.76
34979;BME280;21185;50.978;13.720;2022-09-27T21:41:28;96571.66;;;10.92;66.89
34979;BME280;21185;50.978;13.720;2022-09-27T21:46:30;96571.09;;;10.90;66.84
34979;BME280;21185;50.978;13.720;2022-09-27T21:51:36;96581.66;;;10.88;66.81
34979;BME280;21185;50.978;13.720;2022-09-27T21:56:39;96575.88;;;10.86;66.87
34979;BME280;21185;50.978;13.720;2022-09-27T22:01:42;96580.47;;;10.84;67.01
34979;BME280;21185;50.978;13.720;2022-09-27T22:06:44;96592.44;;;10.85;66.92
34979;BME280;21185;50.978;13.720;2022-09-27T22:11:46;96588.25;;;10.84;66.99
34979;BME280;21185;50.978;13.720;2022-09-27T22:16:48;96595.06;;;10.85;67.04
34979;BME280;21185;50.978;13.720;2022-09-27T22:21:50;96586.25;;;10.86;67.10
34979;BME280;21185;50.978;13.720;2022-09-27T22:26:52;96591.25;;;10.88;67.17
34979;BME280;21185;50.978;13.720;2022-09-27T22:31:54;96579.88;;;10.89;67.15
34979;BME280;21185;50.978;13.720;2022-09-27T22:36:57;96573.47;;;10.91;67.01
34979;BME280;21185;50.978;13.720;2022-09-27T22:42:01;96570.66;;;10.93;67.16
34979;BME280;21185;50.978;13.720;2022-09-27T22:47:03;96563.09;;;10.91;67.19
34979;BME280;21185;50.978;13.720;2022-09-27T22:52:05;96570.28;;;10.89;67.30
34979;BME280;21185;50.978;13.720;2022-09-27T22:57:07;96572.88;;;10.89;67.25
34979;BME280;21185;50.978;13.720;2022-09-27T23:02:09;96571.28;;;10.88;67.23
34979;BME280;21185;50.978;13.720;2022-09-27T23:07:11;96561.09;;;10.87;67.13
34979;BME280;21185;50.978;13.720;2022-09-27T23:12:13;96559.72;;;10.84;67.09
34979;BME280;21185;50.978;13.720;2022-09-27T23:17:15;96558.13;;;10.83;67.23
34979;BME280;21185;50.978;13.720;2022-09-27T23:22:19;96560.34;;;10.80;67.07
34979;BME280;21185;50.978;13.720;2022-09-27T23:27:21;96560.53;;;10.78;67.09
34979;BME280;21185;50.978;13.720;2022-09-27T23:32:42;96561.53;;;10.77;67.07
34979;BME280;21185;50.978;13.720;2022-09-27T23:37:51;96566.13;;;10.75;67.20
34979;BME280;21185;50.978;13.720;2022-09-27T23:42:53;96563.34;;;10.77;67.06
34979;BME280;21185;50.978;13.720;2022-09-27T23:47:55;96555.56;;;10.77;66.99
34979;BME280;21185;50.978;13.720;2022-09-27T23:52:58;96557.16;;;10.78;67.00
34979;BME280;21185;50.978;13.720;2022-09-27T23:58:00;96557.34;;;10.76;66.96
